Tignall, Georgia
Current Conditions -  °F | °C
As of 12:15 PM on Sunday 21 Dec 2014 (Local Time) from KIIY Reporting Station
Scattered Clouds Scattered Clouds  
Wind Chill: 13°   Ceiling: Unl
Heat Index: 13°   Visibility: 10mi
Dew Point: 12°   Wind: 5mph
Humidity: 94%   Direction: 70°ENE
Pressure: 30.2"   Gusts: NA
Location:  33.87°N, 82.74°W
Report Text: KIIY 211715Z AUTO 07004KT 10SM SCT017 13/12 A3020 RMK AO2
Loading
Personal Weather Stations






























Interactive Weather Map New forecast layout! Learn more

10-Day Weather Forecast

Advertisements
Track Severe Weather on mobile